sensor_id;sensor_type;location;lat;lon;timestamp;P1;durP1;ratioP1;P2;durP2;ratioP2
8927;SDS011;4499;48.304;11.902;2023-03-24T00:01:17;4.73;;;3.57;;
8927;SDS011;4499;48.304;11.902;2023-03-24T00:03:46;5.63;;;3.50;;
8927;SDS011;4499;48.304;11.902;2023-03-24T00:06:17;5.07;;;3.10;;
8927;SDS011;4499;48.304;11.902;2023-03-24T00:08:48;5.13;;;3.70;;
8927;SDS011;4499;48.304;11.902;2023-03-24T00:11:17;4.50;;;3.57;;
8927;SDS011;4499;48.304;11.902;2023-03-24T00:13:46;3.80;;;3.40;;
8927;SDS011;4499;48.304;11.902;2023-03-24T00:16:16;3.90;;;3.43;;
8927;SDS011;4499;48.304;11.902;2023-03-24T00:18:47;5.70;;;3.77;;
8927;SDS011;4499;48.304;11.902;2023-03-24T00:21:19;5.13;;;3.63;;
8927;SDS011;4499;48.304;11.902;2023-03-24T00:23:50;7.17;;;3.90;;
8927;SDS011;4499;48.304;11.902;2023-03-24T00:26:21;5.50;;;3.73;;
8927;SDS011;4499;48.304;11.902;2023-03-24T00:28:50;4.93;;;3.77;;
8927;SDS011;4499;48.304;11.902;2023-03-24T00:31:20;6.43;;;4.07;;
8927;SDS011;4499;48.304;11.902;2023-03-24T00:33:50;5.20;;;3.67;;
8927;SDS011;4499;48.304;11.902;2023-03-24T00:36:19;4.87;;;3.67;;
8927;SDS011;4499;48.304;11.902;2023-03-24T00:38:50;7.27;;;4.20;;
8927;SDS011;4499;48.304;11.902;2023-03-24T00:41:19;6.37;;;4.00;;
8927;SDS011;4499;48.304;11.902;2023-03-24T00:43:52;4.33;;;3.80;;
8927;SDS011;4499;48.304;11.902;2023-03-24T00:46:23;7.37;;;4.23;;
8927;SDS011;4499;48.304;11.902;2023-03-24T00:48:56;6.67;;;4.80;;
8927;SDS011;4499;48.304;11.902;2023-03-24T00:51:29;5.57;;;4.43;;
8927;SDS011;4499;48.304;11.902;2023-03-24T00:53:59;6.73;;;4.80;;
8927;SDS011;4499;48.304;11.902;2023-03-24T00:56:28;7.40;;;5.03;;
8927;SDS011;4499;48.304;11.902;2023-03-24T00:58:58;7.13;;;4.93;;
8927;SDS011;4499;48.304;11.902;2023-03-24T01:01:30;7.47;;;5.43;;
8927;SDS011;4499;48.304;11.902;2023-03-24T01:04:04;6.80;;;4.93;;
8927;SDS011;4499;48.304;11.902;2023-03-24T01:06:33;8.50;;;5.33;;
8927;SDS011;4499;48.304;11.902;2023-03-24T01:09:02;7.10;;;4.80;;
8927;SDS011;4499;48.304;11.902;2023-03-24T01:11:33;8.53;;;5.07;;
8927;SDS011;4499;48.304;11.902;2023-03-24T01:14:05;7.40;;;5.00;;
8927;SDS011;4499;48.304;11.902;2023-03-24T01:16:36;11.77;;;4.83;;
8927;SDS011;4499;48.304;11.902;2023-03-24T01:19:05;7.63;;;4.93;;
8927;SDS011;4499;48.304;11.902;2023-03-24T01:21:35;5.93;;;4.97;;
8927;SDS011;4499;48.304;11.902;2023-03-24T01:24:04;7.67;;;5.00;;
8927;SDS011;4499;48.304;11.902;2023-03-24T01:26:33;6.13;;;4.93;;
8927;SDS011;4499;48.304;11.902;2023-03-24T01:29:02;5.10;;;4.20;;
8927;SDS011;4499;48.304;11.902;2023-03-24T01:31:31;5.53;;;4.83;;
8927;SDS011;4499;48.304;11.902;2023-03-24T01:34:00;6.67;;;4.63;;
8927;SDS011;4499;48.304;11.902;2023-03-24T01:36:29;9.17;;;5.27;;
8927;SDS011;4499;48.304;11.902;2023-03-24T01:38:58;7.57;;;4.93;;
8927;SDS011;4499;48.304;11.902;2023-03-24T01:41:26;7.33;;;5.30;;
8927;SDS011;4499;48.304;11.902;2023-03-24T01:43:59;6.50;;;4.70;;
8927;SDS011;4499;48.304;11.902;2023-03-24T01:46:27;6.87;;;4.43;;
8927;SDS011;4499;48.304;11.902;2023-03-24T01:48:59;7.60;;;4.87;;
8927;SDS011;4499;48.304;11.902;2023-03-24T01:51:34;6.53;;;4.43;;
8927;SDS011;4499;48.304;11.902;2023-03-24T01:54:07;4.93;;;4.30;;
8927;SDS011;4499;48.304;11.902;2023-03-24T01:56:41;7.10;;;4.70;;
8927;SDS011;4499;48.304;11.902;2023-03-24T01:59:17;5.97;;;4.60;;
8927;SDS011;4499;48.304;11.902;2023-03-24T02:01:48;6.40;;;4.47;;
8927;SDS011;4499;48.304;11.902;2023-03-24T02:04:18;7.07;;;4.40;;
8927;SDS011;4499;48.304;11.902;2023-03-24T02:06:48;6.07;;;4.50;;
8927;SDS011;4499;48.304;11.902;2023-03-24T02:09:17;6.20;;;4.40;;
8927;SDS011;4499;48.304;11.902;2023-03-24T02:11:45;6.67;;;4.27;;
8927;SDS011;4499;48.304;11.902;2023-03-24T02:14:13;5.90;;;4.30;;
8927;SDS011;4499;48.304;11.902;2023-03-24T02:16:56;5.63;;;4.43;;
8927;SDS011;4499;48.304;11.902;2023-03-24T02:19:51;7.53;;;4.47;;
8927;SDS011;4499;48.304;11.902;2023-03-24T02:26:04;6.60;;;4.77;;
8927;SDS011;4499;48.304;11.902;2023-03-24T02:28:58;6.27;;;4.47;;
8927;SDS011;4499;48.304;11.902;2023-03-24T02:31:48;5.67;;;4.30;;
8927;SDS011;4499;48.304;11.902;2023-03-24T02:34:54;6.23;;;4.30;;
8927;SDS011;4499;48.304;11.902;2023-03-24T02:38:07;6.30;;;4.00;;
8927;SDS011;4499;48.304;11.902;2023-03-24T02:40:56;6.27;;;4.67;;
8927;SDS011;4499;48.304;11.902;2023-03-24T02:43:32;7.50;;;3.83;;
8927;SDS011;4499;48.304;11.902;2023-03-24T02:46:11;7.23;;;4.43;;
8927;SDS011;4499;48.304;11.902;2023-03-24T02:48:49;5.07;;;4.00;;
8927;SDS011;4499;48.304;11.902;2023-03-24T02:51:26;6.17;;;4.73;;
8927;SDS011;4499;48.304;11.902;2023-03-24T02:54:01;6.33;;;4.23;;
8927;SDS011;4499;48.304;11.902;2023-03-24T02:56:36;5.40;;;4.50;;
8927;SDS011;4499;48.304;11.902;2023-03-24T02:59:13;6.43;;;4.67;;
8927;SDS011;4499;48.304;11.902;2023-03-24T03:01:46;5.57;;;4.13;;
8927;SDS011;4499;48.304;11.902;2023-03-24T03:04:24;4.90;;;4.07;;
8927;SDS011;4499;48.304;11.902;2023-03-24T03:06:59;8.47;;;4.50;;
8927;SDS011;4499;48.304;11.902;2023-03-24T03:09:31;6.20;;;4.40;;
8927;SDS011;4499;48.304;11.902;2023-03-24T03:12:03;4.43;;;3.80;;
8927;SDS011;4499;48.304;11.902;2023-03-24T03:14:35;5.37;;;4.23;;
8927;SDS011;4499;48.304;11.902;2023-03-24T03:17:08;5.20;;;3.77;;
8927;SDS011;4499;48.304;11.902;2023-03-24T03:19:41;6.23;;;4.30;;
8927;SDS011;4499;48.304;11.902;2023-03-24T03:22:14;6.57;;;4.40;;
8927;SDS011;4499;48.304;11.902;2023-03-24T03:24:46;5.87;;;4.50;;
8927;SDS011;4499;48.304;11.902;2023-03-24T03:27:20;7.93;;;4.30;;
8927;SDS011;4499;48.304;11.902;2023-03-24T03:29:53;6.07;;;4.20;;
8927;SDS011;4499;48.304;11.902;2023-03-24T03:32:26;9.13;;;4.37;;
8927;SDS011;4499;48.304;11.902;2023-03-24T03:35:00;8.13;;;4.40;;
8927;SDS011;4499;48.304;11.902;2023-03-24T03:37:35;5.57;;;4.30;;
8927;SDS011;4499;48.304;11.902;2023-03-24T03:40:13;6.03;;;4.40;;
8927;SDS011;4499;48.304;11.902;2023-03-24T03:42:47;6.80;;;4.70;;
8927;SDS011;4499;48.304;11.902;2023-03-24T03:45:19;5.20;;;4.20;;
8927;SDS011;4499;48.304;11.902;2023-03-24T03:47:47;6.80;;;4.60;;
8927;SDS011;4499;48.304;11.902;2023-03-24T03:50:16;6.13;;;4.27;;
8927;SDS011;4499;48.304;11.902;2023-03-24T03:52:45;5.77;;;4.27;;
8927;SDS011;4499;48.304;11.902;2023-03-24T03:55:13;4.80;;;4.30;;
8927;SDS011;4499;48.304;11.902;2023-03-24T03:57:42;5.90;;;4.07;;
8927;SDS011;4499;48.304;11.902;2023-03-24T04:00:13;5.17;;;4.37;;
8927;SDS011;4499;48.304;11.902;2023-03-24T04:02:49;5.70;;;4.27;;
8927;SDS011;4499;48.304;11.902;2023-03-24T04:05:26;6.07;;;4.60;;
8927;SDS011;4499;48.304;11.902;2023-03-24T04:13:53;8.10;;;4.70;;
8927;SDS011;4499;48.304;11.902;2023-03-24T04:16:33;8.20;;;4.70;;
8927;SDS011;4499;48.304;11.902;2023-03-24T04:19:12;4.70;;;3.90;;
8927;SDS011;4499;48.304;11.902;2023-03-24T04:21:52;5.60;;;4.37;;
8927;SDS011;4499;48.304;11.902;2023-03-24T04:24:36;6.97;;;4.43;;
8927;SDS011;4499;48.304;11.902;2023-03-24T04:27:18;5.90;;;4.20;;
8927;SDS011;4499;48.304;11.902;2023-03-24T04:29:54;7.13;;;4.27;;
8927;SDS011;4499;48.304;11.902;2023-03-24T04:32:34;5.33;;;4.10;;
8927;SDS011;4499;48.304;11.902;2023-03-24T04:35:09;5.80;;;3.90;;
8927;SDS011;4499;48.304;11.902;2023-03-24T04:37:45;9.63;;;4.20;;
8927;SDS011;4499;48.304;11.902;2023-03-24T04:40:15;5.90;;;4.27;;
8927;SDS011;4499;48.304;11.902;2023-03-24T04:42:45;4.93;;;4.20;;
8927;SDS011;4499;48.304;11.902;2023-03-24T04:45:18;7.87;;;4.43;;
8927;SDS011;4499;48.304;11.902;2023-03-24T04:47:52;8.37;;;4.60;;
8927;SDS011;4499;48.304;11.902;2023-03-24T04:50:28;5.33;;;4.00;;
8927;SDS011;4499;48.304;11.902;2023-03-24T04:52:57;7.67;;;4.47;;
8927;SDS011;4499;48.304;11.902;2023-03-24T04:55:39;6.37;;;4.80;;
8927;SDS011;4499;48.304;11.902;2023-03-24T04:58:20;6.83;;;4.50;;
8927;SDS011;4499;48.304;11.902;2023-03-24T05:00:50;5.10;;;4.20;;
8927;SDS011;4499;48.304;11.902;2023-03-24T05:03:22;6.20;;;4.10;;
8927;SDS011;4499;48.304;11.902;2023-03-24T05:05:51;7.53;;;4.47;;
8927;SDS011;4499;48.304;11.902;2023-03-24T05:08:19;5.97;;;4.10;;
8927;SDS011;4499;48.304;11.902;2023-03-24T05:10:47;5.03;;;4.00;;
8927;SDS011;4499;48.304;11.902;2023-03-24T05:13:16;4.20;;;3.80;;
8927;SDS011;4499;48.304;11.902;2023-03-24T05:15:44;5.03;;;4.43;;
8927;SDS011;4499;48.304;11.902;2023-03-24T05:18:12;5.83;;;4.30;;
8927;SDS011;4499;48.304;11.902;2023-03-24T05:20:42;5.37;;;4.40;;
8927;SDS011;4499;48.304;11.902;2023-03-24T05:23:10;7.43;;;4.43;;
8927;SDS011;4499;48.304;11.902;2023-03-24T05:25:38;6.60;;;3.90;;
8927;SDS011;4499;48.304;11.902;2023-03-24T05:28:07;6.27;;;4.70;;
8927;SDS011;4499;48.304;11.902;2023-03-24T05:30:35;6.73;;;4.53;;
8927;SDS011;4499;48.304;11.902;2023-03-24T05:33:03;7.50;;;4.87;;
8927;SDS011;4499;48.304;11.902;2023-03-24T05:35:31;5.93;;;4.50;;
8927;SDS011;4499;48.304;11.902;2023-03-24T05:38:01;7.07;;;4.50;;
8927;SDS011;4499;48.304;11.902;2023-03-24T05:40:30;6.73;;;4.07;;
8927;SDS011;4499;48.304;11.902;2023-03-24T05:42:58;6.30;;;4.33;;
8927;SDS011;4499;48.304;11.902;2023-03-24T05:45:26;7.30;;;4.30;;
8927;SDS011;4499;48.304;11.902;2023-03-24T05:47:55;7.70;;;4.47;;
8927;SDS011;4499;48.304;11.902;2023-03-24T05:50:24;5.53;;;4.10;;
8927;SDS011;4499;48.304;11.902;2023-03-24T05:52:52;5.93;;;4.03;;
8927;SDS011;4499;48.304;11.902;2023-03-24T05:55:22;6.83;;;4.50;;
8927;SDS011;4499;48.304;11.902;2023-03-24T05:57:50;5.63;;;4.27;;
8927;SDS011;4499;48.304;11.902;2023-03-24T06:00:19;6.30;;;4.60;;
8927;SDS011;4499;48.304;11.902;2023-03-24T06:02:50;7.80;;;4.90;;
8927;SDS011;4499;48.304;11.902;2023-03-24T06:05:18;6.40;;;4.93;;
8927;SDS011;4499;48.304;11.902;2023-03-24T06:07:46;6.70;;;4.40;;
8927;SDS011;4499;48.304;11.902;2023-03-24T06:10:15;6.30;;;4.83;;
8927;SDS011;4499;48.304;11.902;2023-03-24T06:12:45;7.83;;;4.57;;
8927;SDS011;4499;48.304;11.902;2023-03-24T06:15:14;9.73;;;5.17;;
8927;SDS011;4499;48.304;11.902;2023-03-24T06:17:42;6.33;;;4.63;;
8927;SDS011;4499;48.304;11.902;2023-03-24T06:20:11;6.63;;;4.83;;
8927;SDS011;4499;48.304;11.902;2023-03-24T06:22:41;6.53;;;4.97;;
8927;SDS011;4499;48.304;11.902;2023-03-24T06:25:10;6.77;;;4.80;;
8927;SDS011;4499;48.304;11.902;2023-03-24T06:27:41;6.30;;;4.80;;
8927;SDS011;4499;48.304;11.902;2023-03-24T06:30:13;6.80;;;4.93;;
8927;SDS011;4499;48.304;11.902;2023-03-24T06:32:43;6.27;;;4.80;;
8927;SDS011;4499;48.304;11.902;2023-03-24T06:35:12;6.93;;;4.43;;
8927;SDS011;4499;48.304;11.902;2023-03-24T06:37:41;8.77;;;5.17;;
8927;SDS011;4499;48.304;11.902;2023-03-24T06:40:10;6.80;;;5.20;;
8927;SDS011;4499;48.304;11.902;2023-03-24T06:42:41;7.10;;;5.30;;
8927;SDS011;4499;48.304;11.902;2023-03-24T06:45:09;6.80;;;5.13;;
8927;SDS011;4499;48.304;11.902;2023-03-24T06:47:39;6.27;;;4.93;;
8927;SDS011;4499;48.304;11.902;2023-03-24T06:50:08;8.07;;;4.93;;
8927;SDS011;4499;48.304;11.902;2023-03-24T06:52:36;5.50;;;4.70;;
8927;SDS011;4499;48.304;11.902;2023-03-24T06:55:05;6.07;;;5.20;;
8927;SDS011;4499;48.304;11.902;2023-03-24T06:57:34;7.03;;;5.10;;
8927;SDS011;4499;48.304;11.902;2023-03-24T07:00:03;6.13;;;5.13;;
8927;SDS011;4499;48.304;11.902;2023-03-24T07:02:32;7.33;;;5.23;;
8927;SDS011;4499;48.304;11.902;2023-03-24T07:05:03;7.53;;;5.00;;
8927;SDS011;4499;48.304;11.902;2023-03-24T07:07:35;6.87;;;4.87;;
8927;SDS011;4499;48.304;11.902;2023-03-24T07:10:23;7.90;;;5.10;;
8927;SDS011;4499;48.304;11.902;2023-03-24T07:12:52;6.53;;;5.10;;
8927;SDS011;4499;48.304;11.902;2023-03-24T07:15:20;6.77;;;5.23;;
8927;SDS011;4499;48.304;11.902;2023-03-24T07:17:48;7.07;;;4.93;;
8927;SDS011;4499;48.304;11.902;2023-03-24T07:20:19;6.10;;;4.80;;
8927;SDS011;4499;48.304;11.902;2023-03-24T07:22:47;6.60;;;4.90;;
8927;SDS011;4499;48.304;11.902;2023-03-24T07:25:16;6.07;;;4.43;;
8927;SDS011;4499;48.304;11.902;2023-03-24T07:27:46;7.60;;;5.33;;
8927;SDS011;4499;48.304;11.902;2023-03-24T07:30:15;8.00;;;5.20;;
8927;SDS011;4499;48.304;11.902;2023-03-24T07:32:49;7.60;;;5.10;;
8927;SDS011;4499;48.304;11.902;2023-03-24T07:35:21;7.10;;;4.93;;
8927;SDS011;4499;48.304;11.902;2023-03-24T07:37:49;6.40;;;4.90;;
8927;SDS011;4499;48.304;11.902;2023-03-24T07:40:18;7.30;;;5.10;;
8927;SDS011;4499;48.304;11.902;2023-03-24T07:42:47;6.23;;;5.07;;
8927;SDS011;4499;48.304;11.902;2023-03-24T07:45:15;7.13;;;5.20;;
8927;SDS011;4499;48.304;11.902;2023-03-24T07:47:44;8.43;;;5.70;;
8927;SDS011;4499;48.304;11.902;2023-03-24T07:50:12;8.13;;;6.30;;
8927;SDS011;4499;48.304;11.902;2023-03-24T07:52:47;10.57;;;6.20;;
8927;SDS011;4499;48.304;11.902;2023-03-24T07:55:15;8.30;;;5.83;;
8927;SDS011;4499;48.304;11.902;2023-03-24T07:57:44;7.80;;;5.40;;
8927;SDS011;4499;48.304;11.902;2023-03-24T08:00:14;6.57;;;5.23;;
8927;SDS011;4499;48.304;11.902;2023-03-24T08:02:46;7.43;;;5.40;;
8927;SDS011;4499;48.304;11.902;2023-03-24T08:05:15;7.70;;;5.47;;
8927;SDS011;4499;48.304;11.902;2023-03-24T08:07:47;5.63;;;4.73;;
8927;SDS011;4499;48.304;11.902;2023-03-24T08:10:19;7.37;;;5.37;;
8927;SDS011;4499;48.304;11.902;2023-03-24T08:12:49;5.93;;;4.90;;
8927;SDS011;4499;48.304;11.902;2023-03-24T08:15:17;6.97;;;5.80;;
8927;SDS011;4499;48.304;11.902;2023-03-24T08:17:47;7.40;;;5.27;;
8927;SDS011;4499;48.304;11.902;2023-03-24T08:20:15;6.63;;;5.57;;
8927;SDS011;4499;48.304;11.902;2023-03-24T08:22:47;7.53;;;5.70;;
8927;SDS011;4499;48.304;11.902;2023-03-24T08:25:20;7.43;;;5.53;;
8927;SDS011;4499;48.304;11.902;2023-03-24T08:27:50;7.67;;;5.70;;
8927;SDS011;4499;48.304;11.902;2023-03-24T08:30:19;7.30;;;5.17;;
8927;SDS011;4499;48.304;11.902;2023-03-24T08:32:50;7.13;;;5.33;;
8927;SDS011;4499;48.304;11.902;2023-03-24T08:35:20;8.03;;;5.70;;
8927;SDS011;4499;48.304;11.902;2023-03-24T08:37:51;9.47;;;5.63;;
8927;SDS011;4499;48.304;11.902;2023-03-24T08:40:20;9.57;;;5.77;;
8927;SDS011;4499;48.304;11.902;2023-03-24T08:42:51;7.03;;;5.80;;
8927;SDS011;4499;48.304;11.902;2023-03-24T08:45:22;7.20;;;5.87;;
8927;SDS011;4499;48.304;11.902;2023-03-24T08:47:53;7.63;;;6.27;;
8927;SDS011;4499;48.304;11.902;2023-03-24T08:50:23;7.70;;;6.00;;
8927;SDS011;4499;48.304;11.902;2023-03-24T08:52:55;8.20;;;5.53;;
8927;SDS011;4499;48.304;11.902;2023-03-24T08:55:24;8.00;;;5.20;;
8927;SDS011;4499;48.304;11.902;2023-03-24T08:57:52;6.57;;;5.23;;
8927;SDS011;4499;48.304;11.902;2023-03-24T09:00:21;7.67;;;5.40;;
8927;SDS011;4499;48.304;11.902;2023-03-24T09:02:50;7.83;;;5.70;;
8927;SDS011;4499;48.304;11.902;2023-03-24T09:05:20;6.43;;;5.37;;
8927;SDS011;4499;48.304;11.902;2023-03-24T09:08:08;7.80;;;5.50;;
8927;SDS011;4499;48.304;11.902;2023-03-24T09:10:37;7.17;;;5.40;;
8927;SDS011;4499;48.304;11.902;2023-03-24T09:13:07;8.53;;;5.80;;
8927;SDS011;4499;48.304;11.902;2023-03-24T09:15:36;6.93;;;5.17;;
8927;SDS011;4499;48.304;11.902;2023-03-24T09:18:04;6.83;;;5.03;;
8927;SDS011;4499;48.304;11.902;2023-03-24T09:20:33;8.50;;;4.63;;
8927;SDS011;4499;48.304;11.902;2023-03-24T09:23:01;7.03;;;4.70;;
8927;SDS011;4499;48.304;11.902;2023-03-24T09:25:31;6.80;;;4.57;;
8927;SDS011;4499;48.304;11.902;2023-03-24T09:27:59;6.33;;;4.43;;
8927;SDS011;4499;48.304;11.902;2023-03-24T09:30:27;5.77;;;4.53;;
8927;SDS011;4499;48.304;11.902;2023-03-24T09:32:58;5.47;;;4.27;;
8927;SDS011;4499;48.304;11.902;2023-03-24T09:35:27;5.37;;;4.60;;
8927;SDS011;4499;48.304;11.902;2023-03-24T09:37:57;5.63;;;4.20;;
8927;SDS011;4499;48.304;11.902;2023-03-24T09:40:26;7.80;;;4.70;;
8927;SDS011;4499;48.304;11.902;2023-03-24T09:42:57;6.97;;;4.70;;
8927;SDS011;4499;48.304;11.902;2023-03-24T09:45:32;6.50;;;4.40;;
8927;SDS011;4499;48.304;11.902;2023-03-24T09:48:04;6.20;;;4.40;;
8927;SDS011;4499;48.304;11.902;2023-03-24T09:50:38;5.33;;;4.43;;
8927;SDS011;4499;48.304;11.902;2023-03-24T09:53:13;5.00;;;3.90;;
8927;SDS011;4499;48.304;11.902;2023-03-24T09:55:53;6.60;;;4.07;;
8927;SDS011;4499;48.304;11.902;2023-03-24T09:58:24;5.17;;;4.10;;
8927;SDS011;4499;48.304;11.902;2023-03-24T10:00:56;6.93;;;3.80;;
8927;SDS011;4499;48.304;11.902;2023-03-24T10:03:24;7.90;;;4.03;;
8927;SDS011;4499;48.304;11.902;2023-03-24T10:05:53;5.20;;;3.97;;
8927;SDS011;4499;48.304;11.902;2023-03-24T10:08:26;5.83;;;3.77;;
8927;SDS011;4499;48.304;11.902;2023-03-24T10:10:58;5.57;;;3.83;;
8927;SDS011;4499;48.304;11.902;2023-03-24T10:13:34;6.50;;;4.20;;
8927;SDS011;4499;48.304;11.902;2023-03-24T10:16:14;4.07;;;3.60;;
8927;SDS011;4499;48.304;11.902;2023-03-24T10:18:51;5.30;;;3.87;;
8927;SDS011;4499;48.304;11.902;2023-03-24T10:21:26;4.73;;;3.97;;
8927;SDS011;4499;48.304;11.902;2023-03-24T10:23:57;4.40;;;3.83;;
8927;SDS011;4499;48.304;11.902;2023-03-24T10:26:35;6.70;;;3.90;;
8927;SDS011;4499;48.304;11.902;2023-03-24T10:29:15;6.03;;;3.87;;
8927;SDS011;4499;48.304;11.902;2023-03-24T10:31:50;6.53;;;4.73;;
8927;SDS011;4499;48.304;11.902;2023-03-24T10:34:21;5.57;;;4.30;;
8927;SDS011;4499;48.304;11.902;2023-03-24T10:36:52;5.23;;;4.40;;
8927;SDS011;4499;48.304;11.902;2023-03-24T10:39:24;6.00;;;4.13;;
8927;SDS011;4499;48.304;11.902;2023-03-24T10:42:11;5.53;;;4.20;;
8927;SDS011;4499;48.304;11.902;2023-03-24T10:44:45;6.13;;;4.80;;
8927;SDS011;4499;48.304;11.902;2023-03-24T10:47:15;5.67;;;4.33;;
8927;SDS011;4499;48.304;11.902;2023-03-24T10:49:51;5.00;;;4.43;;
8927;SDS011;4499;48.304;11.902;2023-03-24T10:52:20;6.13;;;4.53;;
8927;SDS011;4499;48.304;11.902;2023-03-24T10:54:53;6.27;;;4.83;;
8927;SDS011;4499;48.304;11.902;2023-03-24T10:57:24;6.20;;;4.50;;
8927;SDS011;4499;48.304;11.902;2023-03-24T10:59:59;5.70;;;4.57;;
8927;SDS011;4499;48.304;11.902;2023-03-24T11:02:44;5.60;;;4.30;;
8927;SDS011;4499;48.304;11.902;2023-03-24T11:05:27;5.13;;;3.87;;
8927;SDS011;4499;48.304;11.902;2023-03-24T11:08:09;6.13;;;3.97;;
8927;SDS011;4499;48.304;11.902;2023-03-24T11:10:41;4.40;;;3.77;;
8927;SDS011;4499;48.304;11.902;2023-03-24T11:13:15;6.83;;;3.90;;
8927;SDS011;4499;48.304;11.902;2023-03-24T11:15:53;4.27;;;3.83;;
8927;SDS011;4499;48.304;11.902;2023-03-24T11:18:24;4.60;;;3.67;;
8927;SDS011;4499;48.304;11.902;2023-03-24T11:20:53;5.37;;;3.80;;
8927;SDS011;4499;48.304;11.902;2023-03-24T11:23:26;4.47;;;3.77;;
8927;SDS011;4499;48.304;11.902;2023-03-24T11:26:01;4.80;;;3.73;;
8927;SDS011;4499;48.304;11.902;2023-03-24T11:28:34;4.13;;;3.30;;
8927;SDS011;4499;48.304;11.902;2023-03-24T11:31:08;3.40;;;3.00;;
8927;SDS011;4499;48.304;11.902;2023-03-24T11:33:46;5.40;;;3.53;;
8927;SDS011;4499;48.304;11.902;2023-03-24T11:39:22;4.47;;;2.70;;
8927;SDS011;4499;48.304;11.902;2023-03-24T11:41:58;3.30;;;2.80;;
8927;SDS011;4499;48.304;11.902;2023-03-24T11:44:32;5.97;;;2.10;;
8927;SDS011;4499;48.304;11.902;2023-03-24T11:47:14;2.90;;;1.80;;
8927;SDS011;4499;48.304;11.902;2023-03-24T11:49:50;1.20;;;1.10;;
8927;SDS011;4499;48.304;11.902;2023-03-24T11:52:26;2.80;;;1.30;;
8927;SDS011;4499;48.304;11.902;2023-03-24T11:54:57;1.73;;;1.30;;
8927;SDS011;4499;48.304;11.902;2023-03-24T11:57:31;2.27;;;1.60;;
8927;SDS011;4499;48.304;11.902;2023-03-24T12:00:13;1.70;;;1.60;;
8927;SDS011;4499;48.304;11.902;2023-03-24T12:02:57;2.80;;;1.97;;
8927;SDS011;4499;48.304;11.902;2023-03-24T12:05:55;1.80;;;1.70;;
8927;SDS011;4499;48.304;11.902;2023-03-24T12:08:32;2.07;;;1.87;;
8927;SDS011;4499;48.304;11.902;2023-03-24T12:11:06;2.27;;;2.00;;
8927;SDS011;4499;48.304;11.902;2023-03-24T12:13:46;1.90;;;1.70;;
8927;SDS011;4499;48.304;11.902;2023-03-24T12:16:29;3.53;;;2.20;;
8927;SDS011;4499;48.304;11.902;2023-03-24T12:22:01;3.93;;;2.30;;
8927;SDS011;4499;48.304;11.902;2023-03-24T12:24:45;3.37;;;2.00;;
8927;SDS011;4499;48.304;11.902;2023-03-24T12:27:27;2.47;;;1.80;;
8927;SDS011;4499;48.304;11.902;2023-03-24T12:30:09;3.77;;;2.00;;
8927;SDS011;4499;48.304;11.902;2023-03-24T12:32:46;3.47;;;2.10;;
8927;SDS011;4499;48.304;11.902;2023-03-24T12:38:32;2.27;;;1.63;;
8927;SDS011;4499;48.304;11.902;2023-03-24T12:44:11;2.70;;;2.07;;
8927;SDS011;4499;48.304;11.902;2023-03-24T12:47:17;2.67;;;1.90;;
8927;SDS011;4499;48.304;11.902;2023-03-24T12:50:00;4.67;;;2.20;;
8927;SDS011;4499;48.304;11.902;2023-03-24T12:52:44;2.37;;;2.00;;
8927;SDS011;4499;48.304;11.902;2023-03-24T12:55:36;2.50;;;1.80;;
8927;SDS011;4499;48.304;11.902;2023-03-24T12:58:12;2.23;;;2.00;;
8927;SDS011;4499;48.304;11.902;2023-03-24T13:00:48;2.80;;;1.90;;
8927;SDS011;4499;48.304;11.902;2023-03-24T13:03:26;4.37;;;1.70;;
8927;SDS011;4499;48.304;11.902;2023-03-24T13:06:03;2.63;;;2.10;;
8927;SDS011;4499;48.304;11.902;2023-03-24T13:08:45;3.00;;;1.90;;
8927;SDS011;4499;48.304;11.902;2023-03-24T13:11:23;3.00;;;2.00;;
8927;SDS011;4499;48.304;11.902;2023-03-24T13:13:59;2.30;;;2.10;;
8927;SDS011;4499;48.304;11.902;2023-03-24T13:16:30;2.60;;;2.23;;
8927;SDS011;4499;48.304;11.902;2023-03-24T13:19:02;4.67;;;2.50;;
8927;SDS011;4499;48.304;11.902;2023-03-24T13:21:41;2.33;;;2.00;;
8927;SDS011;4499;48.304;11.902;2023-03-24T13:24:12;2.10;;;1.80;;
8927;SDS011;4499;48.304;11.902;2023-03-24T13:26:43;2.90;;;2.10;;
8927;SDS011;4499;48.304;11.902;2023-03-24T13:29:23;2.87;;;1.90;;
8927;SDS011;4499;48.304;11.902;2023-03-24T13:32:20;1.80;;;1.70;;
8927;SDS011;4499;48.304;11.902;2023-03-24T13:34:56;1.50;;;1.33;;
8927;SDS011;4499;48.304;11.902;2023-03-24T13:37:31;1.47;;;1.37;;
8927;SDS011;4499;48.304;11.902;2023-03-24T13:40:06;1.20;;;1.10;;
8927;SDS011;4499;48.304;11.902;2023-03-24T13:42:41;1.37;;;1.00;;
8927;SDS011;4499;48.304;11.902;2023-03-24T13:45:20;2.20;;;1.70;;
8927;SDS011;4499;48.304;11.902;2023-03-24T13:48:02;3.00;;;1.70;;
8927;SDS011;4499;48.304;11.902;2023-03-24T13:50:33;2.00;;;1.80;;
8927;SDS011;4499;48.304;11.902;2023-03-24T13:53:05;2.10;;;1.67;;
8927;SDS011;4499;48.304;11.902;2023-03-24T13:55:49;1.63;;;1.50;;
8927;SDS011;4499;48.304;11.902;2023-03-24T13:58:19;2.90;;;1.50;;
8927;SDS011;4499;48.304;11.902;2023-03-24T14:01:05;1.53;;;1.10;;
8927;SDS011;4499;48.304;11.902;2023-03-24T14:03:44;1.40;;;1.10;;
8927;SDS011;4499;48.304;11.902;2023-03-24T14:06:14;1.53;;;1.20;;
8927;SDS011;4499;48.304;11.902;2023-03-24T14:08:53;0.97;;;0.97;;
8927;SDS011;4499;48.304;11.902;2023-03-24T14:11:42;1.57;;;1.10;;
8927;SDS011;4499;48.304;11.902;2023-03-24T14:14:19;1.20;;;1.10;;
8927;SDS011;4499;48.304;11.902;2023-03-24T14:16:50;1.80;;;1.20;;
8927;SDS011;4499;48.304;11.902;2023-03-24T14:19:29;1.50;;;1.30;;
8927;SDS011;4499;48.304;11.902;2023-03-24T14:22:09;1.40;;;1.30;;
8927;SDS011;4499;48.304;11.902;2023-03-24T14:24:40;1.47;;;1.37;;
8927;SDS011;4499;48.304;11.902;2023-03-24T14:27:30;2.77;;;1.50;;
8927;SDS011;4499;48.304;11.902;2023-03-24T14:30:02;2.30;;;1.30;;
8927;SDS011;4499;48.304;11.902;2023-03-24T14:32:42;1.90;;;1.27;;
8927;SDS011;4499;48.304;11.902;2023-03-24T14:35:19;1.83;;;1.30;;
8927;SDS011;4499;48.304;11.902;2023-03-24T14:37:52;1.83;;;1.30;;
8927;SDS011;4499;48.304;11.902;2023-03-24T14:40:23;1.40;;;1.30;;
8927;SDS011;4499;48.304;11.902;2023-03-24T14:43:01;1.10;;;1.00;;
8927;SDS011;4499;48.304;11.902;2023-03-24T14:45:52;1.23;;;1.07;;
8927;SDS011;4499;48.304;11.902;2023-03-24T14:48:36;2.10;;;1.13;;
8927;SDS011;4499;48.304;11.902;2023-03-24T14:51:12;1.87;;;0.90;;
8927;SDS011;4499;48.304;11.902;2023-03-24T14:54:03;0.90;;;0.90;;
8927;SDS011;4499;48.304;11.902;2023-03-24T14:56:34;1.00;;;0.90;;
8927;SDS011;4499;48.304;11.902;2023-03-24T14:59:09;1.37;;;1.10;;
8927;SDS011;4499;48.304;11.902;2023-03-24T15:01:48;1.03;;;1.00;;
8927;SDS011;4499;48.304;11.902;2023-03-24T15:04:20;3.07;;;1.50;;
8927;SDS011;4499;48.304;11.902;2023-03-24T15:06:49;2.23;;;1.60;;
8927;SDS011;4499;48.304;11.902;2023-03-24T15:09:17;2.10;;;1.20;;
8927;SDS011;4499;48.304;11.902;2023-03-24T15:11:46;1.30;;;1.20;;
8927;SDS011;4499;48.304;11.902;2023-03-24T15:14:21;1.40;;;1.00;;
8927;SDS011;4499;48.304;11.902;2023-03-24T15:16:55;1.20;;;1.00;;
8927;SDS011;4499;48.304;11.902;2023-03-24T15:19:28;2.37;;;1.00;;
8927;SDS011;4499;48.304;11.902;2023-03-24T15:21:58;1.20;;;1.07;;
8927;SDS011;4499;48.304;11.902;2023-03-24T15:24:33;1.20;;;1.10;;
8927;SDS011;4499;48.304;11.902;2023-03-24T15:29:58;1.23;;;1.10;;
8927;SDS011;4499;48.304;11.902;2023-03-24T15:32:27;2.50;;;1.03;;
8927;SDS011;4499;48.304;11.902;2023-03-24T15:34:58;1.30;;;0.90;;
8927;SDS011;4499;48.304;11.902;2023-03-24T15:37:32;1.10;;;1.00;;
8927;SDS011;4499;48.304;11.902;2023-03-24T15:40:05;1.30;;;0.97;;
8927;SDS011;4499;48.304;11.902;2023-03-24T15:42:56;1.10;;;1.00;;
8927;SDS011;4499;48.304;11.902;2023-03-24T15:45:28;1.00;;;1.00;;
8927;SDS011;4499;48.304;11.902;2023-03-24T15:48:01;1.10;;;0.87;;
8927;SDS011;4499;48.304;11.902;2023-03-24T15:50:34;2.47;;;1.17;;
8927;SDS011;4499;48.304;11.902;2023-03-24T15:53:04;1.33;;;1.23;;
8927;SDS011;4499;48.304;11.902;2023-03-24T15:55:59;1.90;;;1.23;;
8927;SDS011;4499;48.304;11.902;2023-03-24T15:58:41;1.27;;;1.10;;
8927;SDS011;4499;48.304;11.902;2023-03-24T16:01:15;1.40;;;1.30;;
8927;SDS011;4499;48.304;11.902;2023-03-24T16:03:50;19.73;;;14.83;;